Time;durP1;ratioP1;P1;durP2;ratioP2;P2;SDS_P1;SDS_P2;PMS_P1;PMS_P2;Temp;Humidity;BMP_temperature;BMP_pressure;BME280_temperature;BME280_humidity;BME280_pressure;Samples;Min_cycle;Max_cycle;Signal;HPM_P1;HPM_P2
2022/12/02 00:04:22;;;;;;;;;;;2.70;99.90;;;;;;12341945;28;19926;-36
2022/12/02 00:10:31;;;;;;;;;;;2.70;99.90;;;;;;12340577;28;20436;-36
2022/12/02 00:16:33;;;;;;;;;;;2.70;99.90;;;;;;12334814;28;19934;-36
2022/12/02 00:22:34;;;;;;;;;;;2.70;99.90;;;;;;12335928;28;19926;-37
2022/12/02 00:28:36;;;;;;;;;;;2.70;99.90;;;;;;12337642;28;19937;-36
2022/12/02 00:34:38;;;;;;;;;;;2.70;99.90;;;;;;12334826;28;19926;-37
2022/12/02 00:40:40;;;;;;;;;;;2.60;99.90;;;;;;12336276;28;19980;-36
2022/12/02 00:46:41;;;;;;;;;;;2.60;99.90;;;;;;12336301;28;19929;-36
2022/12/02 00:52:43;;;;;;;;;;;2.60;99.90;;;;;;12332798;28;20289;-36
2022/12/02 00:58:45;;;;;;;;;;;2.50;99.90;;;;;;12334090;28;19949;-36
2022/12/02 01:04:47;;;;;;;;;;;2.50;99.90;;;;;;12333772;28;20505;-36
2022/12/02 01:10:48;;;;;;;;;;;2.50;99.90;;;;;;12336826;28;20013;-36
2022/12/02 01:16:51;;;;;;;;;;;2.40;99.90;;;;;;12335460;28;20065;-36
2022/12/02 01:22:53;;;;;;;;;;;2.40;99.90;;;;;;12331246;28;19930;-36
2022/12/02 01:28:55;;;;;;;;;;;2.40;99.90;;;;;;12331429;28;20007;-36
2022/12/02 01:34:56;;;;;;;;;;;2.30;99.90;;;;;;12337426;28;19937;-36
2022/12/02 01:40:59;;;;;;;;;;;2.30;99.90;;;;;;12332047;28;19926;-36
2022/12/02 01:47:00;;;;;;;;;;;2.30;99.90;;;;;;12342054;28;19930;-36
2022/12/02 01:53:02;;;;;;;;;;;2.30;99.90;;;;;;12336218;28;19974;-37
2022/12/02 01:59:04;;;;;;;;;;;2.30;99.90;;;;;;12336065;28;19930;-37
2022/12/02 02:05:14;;;;;;;;;;;2.20;99.90;;;;;;12335169;28;19988;-36
2022/12/02 02:11:16;;;;;;;;;;;2.20;99.90;;;;;;12330175;28;19926;-36
2022/12/02 02:17:17;;;;;;;;;;;2.20;99.90;;;;;;12333732;28;20477;-36
2022/12/02 02:23:23;;;;;;;;;;;2.30;99.90;;;;;;12336537;28;19926;-36
2022/12/02 02:29:25;;;;;;;;;;;2.30;99.90;;;;;;12335269;28;19927;-36
2022/12/02 02:35:27;;;;;;;;;;;2.20;99.90;;;;;;12342895;28;19937;-36
2022/12/02 02:41:29;;;;;;;;;;;2.20;99.90;;;;;;12327165;28;19930;-36
2022/12/02 02:47:31;;;;;;;;;;;2.20;99.90;;;;;;12340001;28;20340;-37
2022/12/02 02:53:33;;;;;;;;;;;2.20;99.90;;;;;;12347357;28;19952;-37
2022/12/02 02:59:36;;;;;;;;;;;2.10;99.90;;;;;;12345496;28;19930;-36
2022/12/02 03:05:38;;;;;;;;;;;2.10;99.90;;;;;;12333812;28;19933;-36
2022/12/02 03:11:40;;;;;;;;;;;2.20;99.90;;;;;;12335483;28;19926;-36
2022/12/02 03:17:42;;;;;;;;;;;2.10;99.90;;;;;;12343884;28;19927;-36
2022/12/02 03:23:44;;;;;;;;;;;2.10;99.90;;;;;;12343354;28;20674;-36
2022/12/02 03:29:46;;;;;;;;;;;2.10;99.90;;;;;;12341584;28;19926;-36
2022/12/02 03:35:48;;;;;;;;;;;2.00;99.90;;;;;;12338626;28;20032;-36
2022/12/02 03:41:49;;;;;;;;;;;2.10;99.90;;;;;;12335477;28;19926;-36
2022/12/02 03:47:51;;;;;;;;;;;1.90;99.90;;;;;;12327930;28;20386;-36
2022/12/02 03:53:54;;;;;;;;;;;2.00;99.90;;;;;;12350933;28;20386;-37
2022/12/02 03:59:56;;;;;;;;;;;2.00;99.90;;;;;;12329941;28;19980;-36
2022/12/02 04:05:57;;;;;;;;;;;2.00;99.90;;;;;;12338875;28;19952;-36
2022/12/02 04:11:59;;;;;;;;;;;2.00;99.90;;;;;;12345146;28;20017;-36
2022/12/02 04:18:01;;;;;;;;;;;2.00;99.90;;;;;;12338144;28;19930;-36
2022/12/02 04:24:03;;;;;;;;;;;1.90;99.90;;;;;;12336730;28;19934;-36
2022/12/02 04:30:05;;;;;;;;;;;1.90;99.90;;;;;;12330372;28;19976;-37
2022/12/02 04:36:07;;;;;;;;;;;1.90;99.90;;;;;;12311592;28;19937;-36
2022/12/02 04:42:08;;;;;;;;;;;1.90;99.90;;;;;;12331561;28;19937;-36
2022/12/02 04:48:10;;;;;;;;;;;1.80;99.90;;;;;;12334121;28;20294;-36
2022/12/02 04:54:12;;;;;;;;;;;1.90;99.90;;;;;;12336688;28;19973;-36
2022/12/02 05:00:14;;;;;;;;;;;1.70;99.90;;;;;;12335240;28;20450;-37
2022/12/02 05:06:15;;;;;;;;;;;1.80;99.90;;;;;;12337879;28;19945;-36
2022/12/02 05:12:17;;;;;;;;;;;1.70;99.90;;;;;;12339161;28;20341;-37
2022/12/02 05:18:19;;;;;;;;;;;1.80;99.90;;;;;;12327666;28;19926;-36
2022/12/02 05:24:20;;;;;;;;;;;1.70;99.90;;;;;;12331379;28;19930;-36
2022/12/02 05:30:22;;;;;;;;;;;1.70;99.90;;;;;;12335800;28;19926;-36
2022/12/02 05:36:24;;;;;;;;;;;1.60;99.90;;;;;;12337596;28;20337;-36
2022/12/02 05:42:26;;;;;;;;;;;1.60;99.90;;;;;;12338818;28;20365;-36
2022/12/02 05:48:32;;;;;;;;;;;1.60;99.90;;;;;;12327512;28;20002;-36
2022/12/02 05:54:33;;;;;;;;;;;1.60;99.90;;;;;;12342623;28;19930;-37
2022/12/02 06:00:35;;;;;;;;;;;1.50;99.90;;;;;;12332480;28;20322;-36
2022/12/02 06:06:37;;;;;;;;;;;1.60;99.90;;;;;;12335573;28;19934;-36
2022/12/02 06:12:39;;;;;;;;;;;1.70;99.90;;;;;;12346451;28;19930;-36
2022/12/02 06:18:40;;;;;;;;;;;1.60;99.90;;;;;;12339007;28;20028;-36
2022/12/02 06:24:42;;;;;;;;;;;1.60;99.90;;;;;;12342804;28;19930;-36
2022/12/02 06:30:44;;;;;;;;;;;1.60;99.90;;;;;;12341148;28;19926;-36
2022/12/02 06:36:46;;;;;;;;;;;1.60;99.90;;;;;;12341862;28;19930;-37
2022/12/02 06:42:47;;;;;;;;;;;1.60;99.90;;;;;;12341174;28;19932;-36
2022/12/02 06:48:49;;;;;;;;;;;1.60;99.90;;;;;;12344749;28;19953;-36
2022/12/02 06:54:51;;;;;;;;;;;1.50;99.90;;;;;;12336803;28;19926;-36
2022/12/02 07:01:00;;;;;;;;;;;1.60;99.90;;;;;;12347358;28;20386;-36
2022/12/02 07:07:15;;;;;;;;;;;1.50;99.90;;;;;;12340845;28;19926;-36
2022/12/02 07:13:18;;;;;;;;;;;1.60;99.90;;;;;;12333148;28;19989;-37
2022/12/02 07:19:22;;;;;;;;;;;1.50;99.90;;;;;;12332182;28;19953;-36
2022/12/02 07:25:31;;;;;;;;;;;1.60;99.90;;;;;;12335975;28;19988;-36
2022/12/02 07:31:33;;;;;;;;;;;1.50;99.90;;;;;;12329033;28;20437;-36
2022/12/02 07:37:35;;;;;;;;;;;1.60;99.90;;;;;;12333635;28;19972;-36
2022/12/02 07:43:36;;;;;;;;;;;1.60;99.90;;;;;;12343798;28;19930;-36
2022/12/02 07:49:38;;;;;;;;;;;1.60;99.90;;;;;;12344302;28;19948;-36
2022/12/02 07:55:40;;;;;;;;;;;1.60;99.90;;;;;;12305834;28;19952;-36
2022/12/02 08:01:44;;;;;;;;;;;1.60;99.90;;;;;;12339262;28;20532;-36
2022/12/02 08:07:46;;;;;;;;;;;1.60;99.90;;;;;;12338717;28;19926;-36
2022/12/02 08:13:47;;;;;;;;;;;1.70;99.90;;;;;;12340180;28;20457;-36
2022/12/02 08:19:49;;;;;;;;;;;1.70;99.90;;;;;;12336273;28;19926;-36
2022/12/02 08:25:51;;;;;;;;;;;1.70;99.90;;;;;;12338396;28;19938;-36
2022/12/02 08:31:53;;;;;;;;;;;1.80;99.90;;;;;;12338542;28;20393;-36
2022/12/02 08:37:54;;;;;;;;;;;1.90;99.90;;;;;;12340456;28;19926;-36
2022/12/02 08:43:56;;;;;;;;;;;1.90;99.90;;;;;;12328441;28;19926;-36
2022/12/02 08:49:58;;;;;;;;;;;1.80;99.90;;;;;;12342103;28;19934;-36
2022/12/02 08:55:59;;;;;;;;;;;2.00;99.90;;;;;;12337153;28;20290;-36
2022/12/02 09:02:01;;;;;;;;;;;1.80;99.90;;;;;;12338564;28;19930;-36
2022/12/02 09:08:03;;;;;;;;;;;1.90;99.90;;;;;;12337271;28;19935;-36
2022/12/02 09:14:07;;;;;;;;;;;1.90;99.90;;;;;;12329719;28;20410;-37
2022/12/02 09:20:09;;;;;;;;;;;2.00;99.90;;;;;;12333773;28;19930;-36
2022/12/02 09:26:11;;;;;;;;;;;2.00;99.90;;;;;;12336274;28;19976;-37
2022/12/02 09:32:13;;;;;;;;;;;2.00;99.90;;;;;;12320395;28;19930;-37
2022/12/02 09:38:14;;;;;;;;;;;2.10;99.90;;;;;;12321491;28;19933;-36
2022/12/02 09:44:16;;;;;;;;;;;2.10;99.90;;;;;;12331951;28;20294;-36
2022/12/02 09:50:18;;;;;;;;;;;2.00;99.90;;;;;;12332344;28;20210;-36
2022/12/02 09:56:20;;;;;;;;;;;2.10;99.90;;;;;;12335031;28;19930;-37
2022/12/02 10:02:40;;;;;;;;;;;2.00;99.90;;;;;;12334687;28;19926;-36
2022/12/02 10:08:42;;;;;;;;;;;1.80;99.90;;;;;;12336740;28;19957;-37
2022/12/02 10:14:47;;;;;;;;;;;1.90;99.90;;;;;;12329331;28;19926;-36
2022/12/02 10:20:49;;;;;;;;;;;2.00;99.90;;;;;;12332260;28;19937;-37
2022/12/02 10:26:51;;;;;;;;;;;2.10;99.90;;;;;;12327552;28;20305;-36
2022/12/02 10:33:04;;;;;;;;;;;2.10;99.90;;;;;;12325729;28;19937;-36
2022/12/02 10:39:14;;;;;;;;;;;2.10;99.90;;;;;;12326752;28;19949;-36
2022/12/02 10:45:21;;;;;;;;;;;2.00;99.90;;;;;;12328909;28;19933;-36
2022/12/02 10:51:22;;;;;;;;;;;1.90;99.90;;;;;;12344521;28;20393;-36
2022/12/02 10:57:28;;;;;;;;;;;2.00;99.90;;;;;;12344537;28;19926;-36
2022/12/02 11:03:30;;;;;;;;;;;2.20;99.90;;;;;;12338645;28;19937;-36
2022/12/02 11:09:32;;;;;;;;;;;2.20;99.90;;;;;;12342006;28;19926;-36
2022/12/02 11:15:44;;;;;;;;;;;2.20;99.90;;;;;;12327452;28;20340;-36
2022/12/02 11:21:45;;;;;;;;;;;2.00;99.90;;;;;;12326062;28;19930;-36
2022/12/02 11:28:07;;;;;;;;;;;2.10;99.90;;;;;;12333285;28;19941;-36
2022/12/02 11:34:23;;;;;;;;;;;2.00;99.90;;;;;;12307456;28;19930;-36
2022/12/02 11:40:31;;;;;;;;;;;2.00;99.90;;;;;;12337902;28;20379;-36
2022/12/02 11:46:38;;;;;;;;;;;2.10;99.90;;;;;;12328706;28;20337;-37
2022/12/02 11:52:48;;;;;;;;;;;2.00;99.90;;;;;;12326831;28;20494;-36
2022/12/02 11:58:50;;;;;;;;;;;1.90;99.90;;;;;;12342485;28;19926;-37
2022/12/02 12:05:17;;;;;;;;;;;2.00;99.90;;;;;;12330872;28;19938;-37
2022/12/02 12:11:19;;;;;;;;;;;2.10;99.90;;;;;;12327884;28;20362;-36
2022/12/02 12:17:50;;;;;;;;;;;2.10;99.90;;;;;;12334924;28;19926;-36
2022/12/02 12:23:53;;;;;;;;;;;2.10;99.90;;;;;;12312000;28;19930;-36
2022/12/02 12:29:54;;;;;;;;;;;2.00;99.90;;;;;;12305105;28;20611;-36
2022/12/02 12:35:57;;;;;;;;;;;2.00;99.90;;;;;;12323329;28;20012;-36
2022/12/02 12:41:59;;;;;;;;;;;2.10;99.90;;;;;;12333491;28;19942;-37
2022/12/02 12:48:02;;;;;;;;;;;2.00;99.90;;;;;;12338355;28;19969;-36
2022/12/02 12:54:04;;;;;;;;;;;2.00;99.90;;;;;;12331249;28;19926;-36
2022/12/02 13:00:06;;;;;;;;;;;2.00;99.90;;;;;;12305388;28;19926;-36
2022/12/02 13:06:08;;;;;;;;;;;1.90;99.90;;;;;;12299293;28;20028;-37
2022/12/02 13:12:10;;;;;;;;;;;1.90;99.90;;;;;;12333563;28;20009;-37
2022/12/02 13:18:13;;;;;;;;;;;2.00;99.90;;;;;;12331447;28;19926;-37
2022/12/02 13:24:15;;;;;;;;;;;1.90;99.90;;;;;;12323018;28;20548;-36
2022/12/02 13:30:18;;;;;;;;;;;1.80;99.90;;;;;;12337142;28;19926;-37
2022/12/02 13:36:19;;;;;;;;;;;1.90;99.90;;;;;;12326507;28;19926;-36
2022/12/02 13:42:21;;;;;;;;;;;1.90;99.90;;;;;;12335970;28;19926;-36
2022/12/02 13:48:23;;;;;;;;;;;1.80;99.90;;;;;;12328272;28;19932;-37
2022/12/02 13:54:25;;;;;;;;;;;1.80;99.90;;;;;;12332563;28;19927;-36
2022/12/02 14:00:27;;;;;;;;;;;1.80;99.90;;;;;;12325319;28;19933;-37
2022/12/02 14:06:28;;;;;;;;;;;1.80;99.90;;;;;;12331744;28;19946;-36
2022/12/02 14:12:30;;;;;;;;;;;1.80;99.90;;;;;;12336800;28;19930;-38
2022/12/02 14:18:31;;;;;;;;;;;1.80;99.90;;;;;;12333692;28;20404;-37
2022/12/02 14:24:33;;;;;;;;;;;1.70;99.90;;;;;;12333616;28;19930;-36
2022/12/02 14:30:35;;;;;;;;;;;1.80;99.90;;;;;;12340695;28;20337;-36
2022/12/02 14:36:37;;;;;;;;;;;1.70;99.90;;;;;;12342545;28;19930;-36
2022/12/02 14:42:39;;;;;;;;;;;1.60;99.90;;;;;;12336242;28;20305;-36
2022/12/02 14:48:40;;;;;;;;;;;1.70;99.90;;;;;;12337828;28;19930;-36
2022/12/02 14:54:42;;;;;;;;;;;1.60;99.90;;;;;;12341753;28;20310;-36
2022/12/02 15:00:44;;;;;;;;;;;1.60;99.90;;;;;;12335762;28;19980;-37
2022/12/02 15:06:45;;;;;;;;;;;1.50;99.90;;;;;;12337487;28;19974;-36
2022/12/02 15:12:47;;;;;;;;;;;1.50;99.90;;;;;;12350071;28;19933;-37
2022/12/02 15:18:49;;;;;;;;;;;1.40;99.90;;;;;;12342196;28;20000;-36
2022/12/02 15:24:54;;;;;;;;;;;1.40;99.90;;;;;;12344435;28;19935;-37
2022/12/02 15:30:55;;;;;;;;;;;1.40;99.90;;;;;;12337737;28;19964;-36
2022/12/02 15:36:57;;;;;;;;;;;1.30;99.90;;;;;;12339267;28;20345;-37
2022/12/02 15:42:59;;;;;;;;;;;1.30;99.90;;;;;;12340202;28;20302;-36
2022/12/02 15:49:01;;;;;;;;;;;1.30;99.90;;;;;;12339350;28;20382;-37
2022/12/02 15:55:03;;;;;;;;;;;1.30;99.90;;;;;;12339659;28;19934;-36
2022/12/02 16:01:05;;;;;;;;;;;1.30;99.90;;;;;;12344375;28;19966;-36
2022/12/02 16:07:06;;;;;;;;;;;1.30;99.90;;;;;;12322731;28;20421;-36
2022/12/02 16:13:08;;;;;;;;;;;1.30;99.90;;;;;;12335717;28;19937;-36
2022/12/02 16:19:10;;;;;;;;;;;1.30;99.90;;;;;;12326658;28;19926;-37
2022/12/02 16:25:12;;;;;;;;;;;1.30;99.90;;;;;;12334331;28;19976;-37
2022/12/02 16:31:14;;;;;;;;;;;1.20;99.90;;;;;;12326434;28;19930;-37
2022/12/02 16:37:19;;;;;;;;;;;1.20;99.90;;;;;;12319729;28;19977;-36
2022/12/02 16:43:20;;;;;;;;;;;1.20;99.90;;;;;;12311064;28;19934;-36
2022/12/02 16:49:22;;;;;;;;;;;1.20;99.90;;;;;;12326700;28;19979;-37
2022/12/02 16:55:24;;;;;;;;;;;1.20;99.90;;;;;;12343164;28;19938;-36
2022/12/02 17:01:26;;;;;;;;;;;1.20;99.90;;;;;;12336733;28;19965;-36
2022/12/02 17:07:28;;;;;;;;;;;1.20;99.90;;;;;;12337902;28;19926;-36
2022/12/02 17:13:30;;;;;;;;;;;1.20;99.90;;;;;;12335870;28;20627;-36
2022/12/02 17:19:32;;;;;;;;;;;1.20;99.90;;;;;;12332530;28;19926;-36
2022/12/02 17:25:35;;;;;;;;;;;1.30;99.90;;;;;;12327783;28;19926;-36
2022/12/02 17:31:36;;;;;;;;;;;1.30;99.90;;;;;;12324569;28;20418;-36
2022/12/02 17:37:38;;;;;;;;;;;1.20;99.90;;;;;;12334644;28;20085;-36
2022/12/02 17:43:40;;;;;;;;;;;1.20;99.90;;;;;;12327660;28;19930;-36
2022/12/02 17:49:41;;;;;;;;;;;1.20;99.90;;;;;;12341974;28;19929;-36
2022/12/02 17:55:43;;;;;;;;;;;1.10;99.90;;;;;;12336770;28;19930;-36
2022/12/02 18:01:45;;;;;;;;;;;1.10;99.90;;;;;;12340202;28;19930;-36
2022/12/02 18:07:47;;;;;;;;;;;1.00;99.90;;;;;;12349158;28;19992;-36
2022/12/02 18:13:48;;;;;;;;;;;1.00;99.90;;;;;;12352150;28;20298;-36
2022/12/02 18:19:50;;;;;;;;;;;1.00;99.90;;;;;;12343638;28;20270;-36
2022/12/02 18:25:52;;;;;;;;;;;1.10;99.90;;;;;;12326159;28;20251;-36
2022/12/02 18:31:53;;;;;;;;;;;1.10;99.90;;;;;;12333784;28;19981;-36
2022/12/02 18:37:55;;;;;;;;;;;1.10;99.90;;;;;;12330995;28;19941;-36
2022/12/02 18:43:57;;;;;;;;;;;1.10;99.90;;;;;;12339102;28;19929;-37
2022/12/02 18:49:59;;;;;;;;;;;1.00;99.90;;;;;;12346781;28;20298;-38
2022/12/02 18:56:01;;;;;;;;;;;1.10;99.90;;;;;;12336985;28;19930;-38
2022/12/02 19:02:02;;;;;;;;;;;1.10;99.90;;;;;;12322931;28;19926;-38
2022/12/02 19:08:04;;;;;;;;;;;1.10;99.90;;;;;;12336756;28;19925;-39
2022/12/02 19:14:06;;;;;;;;;;;1.00;99.90;;;;;;12342540;28;20490;-38
2022/12/02 19:20:08;;;;;;;;;;;1.10;99.90;;;;;;12335803;28;19926;-38
2022/12/02 19:26:10;;;;;;;;;;;1.10;99.90;;;;;;12313340;28;19960;-38
2022/12/02 19:32:12;;;;;;;;;;;1.10;99.90;;;;;;12331641;28;20374;-38
2022/12/02 19:38:14;;;;;;;;;;;1.10;99.90;;;;;;12323731;28;19926;-39
2022/12/02 19:44:16;;;;;;;;;;;1.10;99.90;;;;;;12337601;28;19933;-38
2022/12/02 19:50:18;;;;;;;;;;;1.00;99.90;;;;;;12346603;28;19930;-39
2022/12/02 19:56:20;;;;;;;;;;;1.00;99.90;;;;;;12337873;28;20020;-38
2022/12/02 20:02:22;;;;;;;;;;;1.10;99.90;;;;;;12341064;28;20366;-38
2022/12/02 20:08:24;;;;;;;;;;;1.00;99.90;;;;;;12334919;28;19926;-38
2022/12/02 20:14:26;;;;;;;;;;;1.00;99.90;;;;;;12338225;28;19926;-38
2022/12/02 20:20:28;;;;;;;;;;;1.10;99.90;;;;;;12331650;28;20345;-38
2022/12/02 20:26:30;;;;;;;;;;;1.00;99.90;;;;;;12331582;28;19992;-38
2022/12/02 20:32:32;;;;;;;;;;;1.10;99.90;;;;;;12333345;28;19930;-38
2022/12/02 20:38:34;;;;;;;;;;;1.00;99.90;;;;;;12339311;28;19945;-39
2022/12/02 20:44:35;;;;;;;;;;;1.10;99.90;;;;;;12334694;28;20295;-38
2022/12/02 20:50:39;;;;;;;;;;;1.00;99.90;;;;;;12341256;28;19934;-39
2022/12/02 20:56:41;;;;;;;;;;;1.10;99.90;;;;;;12330384;28;19930;-38
2022/12/02 21:02:43;;;;;;;;;;;1.10;99.90;;;;;;12332216;28;19930;-38
2022/12/02 21:08:45;;;;;;;;;;;1.10;99.90;;;;;;12332354;28;19980;-38
2022/12/02 21:14:46;;;;;;;;;;;1.20;99.90;;;;;;12335132;28;19961;-38
2022/12/02 21:20:48;;;;;;;;;;;1.10;99.90;;;;;;12325126;28;19937;-38
2022/12/02 21:26:50;;;;;;;;;;;1.10;99.90;;;;;;12327811;28;19930;-38
2022/12/02 21:32:52;;;;;;;;;;;1.20;99.90;;;;;;12322005;28;19934;-38
2022/12/02 21:38:53;;;;;;;;;;;1.20;99.90;;;;;;12324357;28;19938;-38
2022/12/02 21:44:55;;;;;;;;;;;1.20;99.90;;;;;;12331527;28;19933;-38
2022/12/02 21:50:57;;;;;;;;;;;1.20;99.90;;;;;;12334531;28;19959;-38
2022/12/02 21:56:58;;;;;;;;;;;1.10;99.90;;;;;;12329954;28;20380;-39
2022/12/02 22:03:01;;;;;;;;;;;1.10;99.90;;;;;;12332956;28;19959;-38
2022/12/02 22:09:03;;;;;;;;;;;1.10;99.90;;;;;;12316217;28;20025;-38
2022/12/02 22:15:06;;;;;;;;;;;1.10;99.90;;;;;;12329589;28;19926;-38
2022/12/02 22:21:08;;;;;;;;;;;1.00;99.90;;;;;;12335861;28;20337;-38
2022/12/02 22:27:09;;;;;;;;;;;1.10;99.90;;;;;;12327963;28;19934;-38
2022/12/02 22:33:11;;;;;;;;;;;1.00;99.90;;;;;;12332245;28;20374;-38
2022/12/02 22:39:13;;;;;;;;;;;1.00;99.90;;;;;;12332165;28;20381;-38
2022/12/02 22:45:15;;;;;;;;;;;1.00;99.90;;;;;;12328383;28;19927;-38
2022/12/02 22:51:16;;;;;;;;;;;1.10;99.90;;;;;;12340512;28;19930;-38
2022/12/02 22:57:18;;;;;;;;;;;1.00;99.90;;;;;;12333211;28;19926;-38
2022/12/02 23:03:20;;;;;;;;;;;0.90;99.90;;;;;;12336976;28;20364;-38
2022/12/02 23:09:22;;;;;;;;;;;0.90;99.90;;;;;;12342854;28;20282;-38
2022/12/02 23:15:24;;;;;;;;;;;0.90;99.90;;;;;;12330204;28;19930;-38
2022/12/02 23:21:38;;;;;;;;;;;1.00;99.90;;;;;;12342213;28;19926;-38
2022/12/02 23:27:40;;;;;;;;;;;1.00;99.90;;;;;;12340814;28;19937;-38
2022/12/02 23:33:41;;;;;;;;;;;1.00;99.90;;;;;;12339736;28;19930;-38
2022/12/02 23:39:45;;;;;;;;;;;1.00;99.90;;;;;;12335978;28;20280;-38
2022/12/02 23:45:47;;;;;;;;;;;1.00;99.90;;;;;;12335731;28;19926;-39
2022/12/02 23:51:49;;;;;;;;;;;1.00;99.90;;;;;;12335522;28;19981;-38
2022/12/02 23:57:50;;;;;;;;;;;0.90;99.90;;;;;;12341041;28;19933;-38
